sensor_id;sensor_type;location;lat;lon;timestamp;temperature;humidity
59855;DHT22;45732;52.850;6.896;2023-03-21T00:00:45;9.30;99.90
59855;DHT22;45732;52.850;6.896;2023-03-21T00:03:13;9.30;99.90
59855;DHT22;45732;52.850;6.896;2023-03-21T00:05:42;9.30;99.90
59855;DHT22;45732;52.850;6.896;2023-03-21T00:08:14;9.30;99.90
59855;DHT22;45732;52.850;6.896;2023-03-21T00:10:40;9.30;99.90
59855;DHT22;45732;52.850;6.896;2023-03-21T00:13:06;9.40;99.90
59855;DHT22;45732;52.850;6.896;2023-03-21T00:15:32;9.40;99.90
59855;DHT22;45732;52.850;6.896;2023-03-21T00:17:58;9.40;99.90
59855;DHT22;45732;52.850;6.896;2023-03-21T00:20:31;9.40;99.90
59855;DHT22;45732;52.850;6.896;2023-03-21T00:23:02;9.40;99.90
59855;DHT22;45732;52.850;6.896;2023-03-21T00:25:29;9.40;99.90
59855;DHT22;45732;52.850;6.896;2023-03-21T00:27:56;9.40;99.90
59855;DHT22;45732;52.850;6.896;2023-03-21T00:30:22;9.40;99.90
59855;DHT22;45732;52.850;6.896;2023-03-21T00:32:48;9.40;99.90
59855;DHT22;45732;52.850;6.896;2023-03-21T00:35:14;9.40;99.90
59855;DHT22;45732;52.850;6.896;2023-03-21T00:37:40;9.40;99.90
59855;DHT22;45732;52.850;6.896;2023-03-21T00:40:08;9.50;99.90
59855;DHT22;45732;52.850;6.896;2023-03-21T00:42:35;9.50;99.90
59855;DHT22;45732;52.850;6.896;2023-03-21T00:45:02;9.50;99.90
59855;DHT22;45732;52.850;6.896;2023-03-21T00:47:27;9.50;99.90
59855;DHT22;45732;52.850;6.896;2023-03-21T00:49:53;9.50;99.90
59855;DHT22;45732;52.850;6.896;2023-03-21T00:52:19;9.50;99.90
59855;DHT22;45732;52.850;6.896;2023-03-21T00:54:45;9.50;99.90
59855;DHT22;45732;52.850;6.896;2023-03-21T00:57:10;9.50;99.90
59855;DHT22;45732;52.850;6.896;2023-03-21T00:59:36;9.50;99.90
59855;DHT22;45732;52.850;6.896;2023-03-21T01:02:02;9.50;99.90
59855;DHT22;45732;52.850;6.896;2023-03-21T01:04:32;9.50;99.90
59855;DHT22;45732;52.850;6.896;2023-03-21T01:07:01;9.50;99.90
59855;DHT22;45732;52.850;6.896;2023-03-21T01:09:27;9.60;99.90
59855;DHT22;45732;52.850;6.896;2023-03-21T01:11:53;9.50;99.90
59855;DHT22;45732;52.850;6.896;2023-03-21T01:14:20;9.50;99.90
59855;DHT22;45732;52.850;6.896;2023-03-21T01:16:47;9.50;99.90
59855;DHT22;45732;52.850;6.896;2023-03-21T01:19:15;9.50;99.90
59855;DHT22;45732;52.850;6.896;2023-03-21T01:21:42;9.60;99.90
59855;DHT22;45732;52.850;6.896;2023-03-21T01:24:08;9.60;99.90
59855;DHT22;45732;52.850;6.896;2023-03-21T01:26:35;9.50;99.90
59855;DHT22;45732;52.850;6.896;2023-03-21T01:29:03;9.60;99.90
59855;DHT22;45732;52.850;6.896;2023-03-21T01:31:29;9.60;99.90
59855;DHT22;45732;52.850;6.896;2023-03-21T01:33:54;9.50;99.90
59855;DHT22;45732;52.850;6.896;2023-03-21T01:36:23;9.60;99.90
59855;DHT22;45732;52.850;6.896;2023-03-21T01:38:50;9.60;99.90
59855;DHT22;45732;52.850;6.896;2023-03-21T01:43:50;9.60;99.90
59855;DHT22;45732;52.850;6.896;2023-03-21T01:49:10;9.60;99.90
59855;DHT22;45732;52.850;6.896;2023-03-21T01:51:49;9.70;99.90
59855;DHT22;45732;52.850;6.896;2023-03-21T01:54:28;9.60;99.90
59855;DHT22;45732;52.850;6.896;2023-03-21T01:56:58;9.70;99.90
59855;DHT22;45732;52.850;6.896;2023-03-21T01:59:36;9.70;99.90
59855;DHT22;45732;52.850;6.896;2023-03-21T02:02:05;9.70;99.90
59855;DHT22;45732;52.850;6.896;2023-03-21T02:04:35;9.70;99.90
59855;DHT22;45732;52.850;6.896;2023-03-21T02:07:15;9.60;99.90
59855;DHT22;45732;52.850;6.896;2023-03-21T02:09:45;9.70;99.90
59855;DHT22;45732;52.850;6.896;2023-03-21T02:12:11;9.70;99.90
59855;DHT22;45732;52.850;6.896;2023-03-21T02:14:38;9.60;99.90
59855;DHT22;45732;52.850;6.896;2023-03-21T02:28:38;9.70;99.90
59855;DHT22;45732;52.850;6.896;2023-03-21T02:39:12;9.70;99.90
59855;DHT22;45732;52.850;6.896;2023-03-21T02:45:01;9.70;99.90
59855;DHT22;45732;52.850;6.896;2023-03-21T02:47:35;9.70;99.90
59855;DHT22;45732;52.850;6.896;2023-03-21T02:52:30;9.70;99.90
59855;DHT22;45732;52.850;6.896;2023-03-21T02:54:59;9.70;99.90
59855;DHT22;45732;52.850;6.896;2023-03-21T02:57:25;9.70;99.90
59855;DHT22;45732;52.850;6.896;2023-03-21T02:59:52;9.80;99.90
59855;DHT22;45732;52.850;6.896;2023-03-21T03:02:22;9.70;99.90
59855;DHT22;45732;52.850;6.896;2023-03-21T03:04:49;9.70;99.90
59855;DHT22;45732;52.850;6.896;2023-03-21T03:10:11;9.70;99.90
59855;DHT22;45732;52.850;6.896;2023-03-21T03:18:58;9.70;99.90
59855;DHT22;45732;52.850;6.896;2023-03-21T03:27:25;9.70;99.90
59855;DHT22;45732;52.850;6.896;2023-03-21T03:29:45;9.70;99.90
59855;DHT22;45732;52.850;6.896;2023-03-21T03:32:24;9.70;99.90
59855;DHT22;45732;52.850;6.896;2023-03-21T03:34:53;9.70;99.90
59855;DHT22;45732;52.850;6.896;2023-03-21T03:37:28;9.60;99.90
59855;DHT22;45732;52.850;6.896;2023-03-21T03:40:06;9.70;99.90
59855;DHT22;45732;52.850;6.896;2023-03-21T03:42:38;9.60;99.90
59855;DHT22;45732;52.850;6.896;2023-03-21T03:45:05;9.60;99.90
59855;DHT22;45732;52.850;6.896;2023-03-21T03:50:13;9.60;99.90
59855;DHT22;45732;52.850;6.896;2023-03-21T03:52:53;9.70;99.90
59855;DHT22;45732;52.850;6.896;2023-03-21T03:55:22;9.70;99.90
59855;DHT22;45732;52.850;6.896;2023-03-21T03:57:52;9.70;99.90
59855;DHT22;45732;52.850;6.896;2023-03-21T04:00:18;9.70;99.90
59855;DHT22;45732;52.850;6.896;2023-03-21T04:02:45;9.70;99.90
59855;DHT22;45732;52.850;6.896;2023-03-21T04:05:11;9.70;99.90
59855;DHT22;45732;52.850;6.896;2023-03-21T04:07:38;9.70;99.90
59855;DHT22;45732;52.850;6.896;2023-03-21T04:10:04;9.70;99.90
59855;DHT22;45732;52.850;6.896;2023-03-21T04:12:30;9.70;99.90
59855;DHT22;45732;52.850;6.896;2023-03-21T04:14:55;9.60;99.90
59855;DHT22;45732;52.850;6.896;2023-03-21T04:17:21;9.70;99.90
59855;DHT22;45732;52.850;6.896;2023-03-21T04:19:47;9.70;99.90
59855;DHT22;45732;52.850;6.896;2023-03-21T04:22:16;9.70;99.90
59855;DHT22;45732;52.850;6.896;2023-03-21T04:24:41;9.70;99.90
59855;DHT22;45732;52.850;6.896;2023-03-21T04:27:07;9.70;99.90
59855;DHT22;45732;52.850;6.896;2023-03-21T04:29:33;9.70;99.90
59855;DHT22;45732;52.850;6.896;2023-03-21T04:31:59;9.70;99.90
59855;DHT22;45732;52.850;6.896;2023-03-21T04:34:25;9.70;99.90
59855;DHT22;45732;52.850;6.896;2023-03-21T04:36:55;9.70;99.90
59855;DHT22;45732;52.850;6.896;2023-03-21T04:39:21;9.70;99.90
59855;DHT22;45732;52.850;6.896;2023-03-21T04:41:47;9.70;99.90
59855;DHT22;45732;52.850;6.896;2023-03-21T04:44:14;9.70;99.90
59855;DHT22;45732;52.850;6.896;2023-03-21T04:46:41;9.70;99.90
59855;DHT22;45732;52.850;6.896;2023-03-21T04:49:07;9.70;99.90
59855;DHT22;45732;52.850;6.896;2023-03-21T04:51:33;9.70;99.90
59855;DHT22;45732;52.850;6.896;2023-03-21T04:53:59;9.60;99.90
59855;DHT22;45732;52.850;6.896;2023-03-21T04:56:26;9.60;99.90
59855;DHT22;45732;52.850;6.896;2023-03-21T04:59:04;9.60;99.90
59855;DHT22;45732;52.850;6.896;2023-03-21T05:01:30;9.70;99.90
59855;DHT22;45732;52.850;6.896;2023-03-21T05:04:00;9.70;99.90
59855;DHT22;45732;52.850;6.896;2023-03-21T05:06:26;9.70;99.90
59855;DHT22;45732;52.850;6.896;2023-03-21T05:08:54;9.70;99.90
59855;DHT22;45732;52.850;6.896;2023-03-21T05:11:40;9.70;99.90
59855;DHT22;45732;52.850;6.896;2023-03-21T05:14:09;9.70;99.90
59855;DHT22;45732;52.850;6.896;2023-03-21T05:16:37;9.70;99.90
59855;DHT22;45732;52.850;6.896;2023-03-21T05:19:03;9.70;99.90
59855;DHT22;45732;52.850;6.896;2023-03-21T05:21:30;9.70;99.90
59855;DHT22;45732;52.850;6.896;2023-03-21T05:23:59;9.60;99.90
59855;DHT22;45732;52.850;6.896;2023-03-21T05:26:28;9.60;99.90
59855;DHT22;45732;52.850;6.896;2023-03-21T05:28:54;9.60;99.90
59855;DHT22;45732;52.850;6.896;2023-03-21T05:31:20;9.60;99.90
59855;DHT22;45732;52.850;6.896;2023-03-21T05:33:47;9.60;99.90
59855;DHT22;45732;52.850;6.896;2023-03-21T05:36:13;9.60;99.90
59855;DHT22;45732;52.850;6.896;2023-03-21T05:38:39;9.60;99.90
59855;DHT22;45732;52.850;6.896;2023-03-21T05:41:11;9.60;99.90
59855;DHT22;45732;52.850;6.896;2023-03-21T05:43:37;9.60;99.90
59855;DHT22;45732;52.850;6.896;2023-03-21T05:46:03;9.60;99.90
59855;DHT22;45732;52.850;6.896;2023-03-21T05:48:29;9.60;99.90
59855;DHT22;45732;52.850;6.896;2023-03-21T05:50:55;9.70;99.90
59855;DHT22;45732;52.850;6.896;2023-03-21T05:53:21;9.60;99.90
59855;DHT22;45732;52.850;6.896;2023-03-21T05:55:46;9.60;99.90
59855;DHT22;45732;52.850;6.896;2023-03-21T05:58:12;9.70;99.90
59855;DHT22;45732;52.850;6.896;2023-03-21T06:00:38;9.60;99.90
59855;DHT22;45732;52.850;6.896;2023-03-21T06:03:03;9.70;99.90
59855;DHT22;45732;52.850;6.896;2023-03-21T06:05:29;9.60;99.90
59855;DHT22;45732;52.850;6.896;2023-03-21T06:07:55;9.60;99.90
59855;DHT22;45732;52.850;6.896;2023-03-21T06:10:20;9.60;99.90
59855;DHT22;45732;52.850;6.896;2023-03-21T06:12:46;9.60;99.90
59855;DHT22;45732;52.850;6.896;2023-03-21T06:15:12;9.60;99.90
59855;DHT22;45732;52.850;6.896;2023-03-21T06:17:38;9.60;99.90
59855;DHT22;45732;52.850;6.896;2023-03-21T06:20:05;9.60;99.90
59855;DHT22;45732;52.850;6.896;2023-03-21T06:22:32;9.60;99.90
59855;DHT22;45732;52.850;6.896;2023-03-21T06:24:58;9.60;99.90
59855;DHT22;45732;52.850;6.896;2023-03-21T06:27:24;9.60;99.90
59855;DHT22;45732;52.850;6.896;2023-03-21T06:29:50;9.60;99.90
59855;DHT22;45732;52.850;6.896;2023-03-21T06:32:16;9.60;99.90
59855;DHT22;45732;52.850;6.896;2023-03-21T06:34:41;9.60;99.90
59855;DHT22;45732;52.850;6.896;2023-03-21T06:37:08;9.60;99.90
59855;DHT22;45732;52.850;6.896;2023-03-21T06:39:34;9.60;99.90
59855;DHT22;45732;52.850;6.896;2023-03-21T06:42:00;9.70;99.90
59855;DHT22;45732;52.850;6.896;2023-03-21T06:44:26;9.60;99.90
59855;DHT22;45732;52.850;6.896;2023-03-21T06:46:52;9.60;99.90
59855;DHT22;45732;52.850;6.896;2023-03-21T06:49:18;9.70;99.90
59855;DHT22;45732;52.850;6.896;2023-03-21T06:51:44;9.70;99.90
59855;DHT22;45732;52.850;6.896;2023-03-21T06:54:10;9.60;99.90
59855;DHT22;45732;52.850;6.896;2023-03-21T06:56:36;9.70;99.90
59855;DHT22;45732;52.850;6.896;2023-03-21T06:59:02;9.70;99.90
59855;DHT22;45732;52.850;6.896;2023-03-21T07:01:28;9.60;99.90
59855;DHT22;45732;52.850;6.896;2023-03-21T07:03:55;9.60;99.90
59855;DHT22;45732;52.850;6.896;2023-03-21T07:06:23;9.70;99.90
59855;DHT22;45732;52.850;6.896;2023-03-21T07:08:51;9.70;99.90
59855;DHT22;45732;52.850;6.896;2023-03-21T07:11:18;9.70;99.90
59855;DHT22;45732;52.850;6.896;2023-03-21T07:13:43;9.70;99.90
59855;DHT22;45732;52.850;6.896;2023-03-21T07:16:10;9.70;99.90
59855;DHT22;45732;52.850;6.896;2023-03-21T07:18:36;9.70;99.90
59855;DHT22;45732;52.850;6.896;2023-03-21T07:21:03;9.70;99.90
59855;DHT22;45732;52.850;6.896;2023-03-21T07:23:29;9.70;99.90
59855;DHT22;45732;52.850;6.896;2023-03-21T07:25:55;9.70;99.90
59855;DHT22;45732;52.850;6.896;2023-03-21T07:28:22;9.70;99.90
59855;DHT22;45732;52.850;6.896;2023-03-21T07:30:53;9.70;99.90
59855;DHT22;45732;52.850;6.896;2023-03-21T07:33:19;9.70;99.90
59855;DHT22;45732;52.850;6.896;2023-03-21T07:35:45;9.70;99.90
59855;DHT22;45732;52.850;6.896;2023-03-21T07:38:10;9.70;99.90
59855;DHT22;45732;52.850;6.896;2023-03-21T07:40:36;9.70;99.90
59855;DHT22;45732;52.850;6.896;2023-03-21T07:43:02;9.70;99.90
59855;DHT22;45732;52.850;6.896;2023-03-21T07:45:28;9.70;99.90
59855;DHT22;45732;52.850;6.896;2023-03-21T07:47:53;9.70;99.90
59855;DHT22;45732;52.850;6.896;2023-03-21T07:50:19;9.70;99.90
59855;DHT22;45732;52.850;6.896;2023-03-21T07:52:46;9.70;99.90
59855;DHT22;45732;52.850;6.896;2023-03-21T07:55:12;9.60;99.90
59855;DHT22;45732;52.850;6.896;2023-03-21T07:57:38;9.60;99.90
59855;DHT22;45732;52.850;6.896;2023-03-21T08:00:05;9.60;99.90
59855;DHT22;45732;52.850;6.896;2023-03-21T08:02:31;9.70;99.90
59855;DHT22;45732;52.850;6.896;2023-03-21T08:04:57;9.70;99.90
59855;DHT22;45732;52.850;6.896;2023-03-21T08:07:23;9.70;99.90
59855;DHT22;45732;52.850;6.896;2023-03-21T08:09:49;9.70;99.90
59855;DHT22;45732;52.850;6.896;2023-03-21T08:12:14;9.70;99.90
59855;DHT22;45732;52.850;6.896;2023-03-21T08:14:41;9.60;99.90
59855;DHT22;45732;52.850;6.896;2023-03-21T08:17:07;9.70;99.90
59855;DHT22;45732;52.850;6.896;2023-03-21T08:19:34;9.70;99.90
59855;DHT22;45732;52.850;6.896;2023-03-21T08:22:00;9.60;99.90
59855;DHT22;45732;52.850;6.896;2023-03-21T08:24:29;9.70;99.90
59855;DHT22;45732;52.850;6.896;2023-03-21T08:26:55;9.70;99.90
59855;DHT22;45732;52.850;6.896;2023-03-21T08:29:21;9.70;99.90
59855;DHT22;45732;52.850;6.896;2023-03-21T08:31:49;9.60;99.90
59855;DHT22;45732;52.850;6.896;2023-03-21T08:34:15;9.70;99.90
59855;DHT22;45732;52.850;6.896;2023-03-21T08:36:42;9.70;99.90
59855;DHT22;45732;52.850;6.896;2023-03-21T08:39:08;9.70;99.90
59855;DHT22;45732;52.850;6.896;2023-03-21T08:41:36;9.70;99.90
59855;DHT22;45732;52.850;6.896;2023-03-21T08:44:03;9.70;99.90
59855;DHT22;45732;52.850;6.896;2023-03-21T08:46:30;9.70;99.90
59855;DHT22;45732;52.850;6.896;2023-03-21T08:48:56;9.70;99.90
59855;DHT22;45732;52.850;6.896;2023-03-21T08:51:22;9.80;99.90
59855;DHT22;45732;52.850;6.896;2023-03-21T08:53:48;9.80;99.90
59855;DHT22;45732;52.850;6.896;2023-03-21T08:56:16;9.80;99.90
59855;DHT22;45732;52.850;6.896;2023-03-21T08:58:42;9.80;99.90
59855;DHT22;45732;52.850;6.896;2023-03-21T09:01:09;9.80;99.90
59855;DHT22;45732;52.850;6.896;2023-03-21T09:03:36;9.80;99.90
59855;DHT22;45732;52.850;6.896;2023-03-21T09:06:03;9.80;99.90
59855;DHT22;45732;52.850;6.896;2023-03-21T09:08:29;9.80;99.90
59855;DHT22;45732;52.850;6.896;2023-03-21T09:10:55;9.90;99.90
59855;DHT22;45732;52.850;6.896;2023-03-21T09:13:21;9.80;99.90
59855;DHT22;45732;52.850;6.896;2023-03-21T09:15:48;9.90;99.90
59855;DHT22;45732;52.850;6.896;2023-03-21T09:18:15;9.90;99.90
59855;DHT22;45732;52.850;6.896;2023-03-21T09:20:44;10.00;99.90
59855;DHT22;45732;52.850;6.896;2023-03-21T09:23:12;9.90;99.90
59855;DHT22;45732;52.850;6.896;2023-03-21T09:25:39;9.90;99.90
59855;DHT22;45732;52.850;6.896;2023-03-21T09:28:05;10.00;99.90
59855;DHT22;45732;52.850;6.896;2023-03-21T09:30:32;10.00;99.90
59855;DHT22;45732;52.850;6.896;2023-03-21T09:33:04;10.00;99.90
59855;DHT22;45732;52.850;6.896;2023-03-21T09:35:34;10.00;99.90
59855;DHT22;45732;52.850;6.896;2023-03-21T09:38:00;10.00;99.90
59855;DHT22;45732;52.850;6.896;2023-03-21T09:46:22;10.00;99.90
59855;DHT22;45732;52.850;6.896;2023-03-21T09:48:58;10.10;99.90
59855;DHT22;45732;52.850;6.896;2023-03-21T09:51:31;10.10;99.90
59855;DHT22;45732;52.850;6.896;2023-03-21T09:54:02;10.10;99.90
59855;DHT22;45732;52.850;6.896;2023-03-21T09:56:30;10.10;99.90
59855;DHT22;45732;52.850;6.896;2023-03-21T09:58:58;10.20;99.90
59855;DHT22;45732;52.850;6.896;2023-03-21T10:01:30;10.20;99.90
59855;DHT22;45732;52.850;6.896;2023-03-21T10:04:07;10.30;99.90
59855;DHT22;45732;52.850;6.896;2023-03-21T10:06:37;10.20;99.90
59855;DHT22;45732;52.850;6.896;2023-03-21T10:09:12;10.30;99.90
59855;DHT22;45732;52.850;6.896;2023-03-21T10:11:46;10.30;99.90
59855;DHT22;45732;52.850;6.896;2023-03-21T10:16:56;10.30;99.90
59855;DHT22;45732;52.850;6.896;2023-03-21T10:19:22;10.30;99.90
59855;DHT22;45732;52.850;6.896;2023-03-21T10:21:49;10.30;99.90
59855;DHT22;45732;52.850;6.896;2023-03-21T10:24:19;10.40;99.90
59855;DHT22;45732;52.850;6.896;2023-03-21T10:26:47;10.30;99.90
59855;DHT22;45732;52.850;6.896;2023-03-21T10:29:15;10.30;99.90
59855;DHT22;45732;52.850;6.896;2023-03-21T10:31:44;10.30;99.90
59855;DHT22;45732;52.850;6.896;2023-03-21T10:34:24;10.30;99.90
59855;DHT22;45732;52.850;6.896;2023-03-21T10:36:53;10.30;99.90
59855;DHT22;45732;52.850;6.896;2023-03-21T10:41:47;10.30;99.90
59855;DHT22;45732;52.850;6.896;2023-03-21T10:44:16;10.30;99.90
59855;DHT22;45732;52.850;6.896;2023-03-21T10:49:15;10.40;99.90
59855;DHT22;45732;52.850;6.896;2023-03-21T10:51:42;10.30;99.90
59855;DHT22;45732;52.850;6.896;2023-03-21T10:54:13;10.40;99.90
59855;DHT22;45732;52.850;6.896;2023-03-21T10:57:03;10.40;99.90
59855;DHT22;45732;52.850;6.896;2023-03-21T11:02:23;10.40;99.90
59855;DHT22;45732;52.850;6.896;2023-03-21T11:04:52;10.40;99.90
59855;DHT22;45732;52.850;6.896;2023-03-21T11:07:18;10.40;99.90
59855;DHT22;45732;52.850;6.896;2023-03-21T11:09:49;10.40;99.90
59855;DHT22;45732;52.850;6.896;2023-03-21T11:12:33;10.50;99.90
59855;DHT22;45732;52.850;6.896;2023-03-21T11:18:26;10.50;99.90
59855;DHT22;45732;52.850;6.896;2023-03-21T11:21:06;10.50;99.90
59855;DHT22;45732;52.850;6.896;2023-03-21T11:23:34;10.60;99.90
59855;DHT22;45732;52.850;6.896;2023-03-21T11:26:09;10.60;99.90
59855;DHT22;45732;52.850;6.896;2023-03-21T11:28:37;10.60;99.90
59855;DHT22;45732;52.850;6.896;2023-03-21T11:31:04;10.70;99.90
59855;DHT22;45732;52.850;6.896;2023-03-21T11:33:41;10.70;99.90
59855;DHT22;45732;52.850;6.896;2023-03-21T11:38:48;10.80;99.90
59855;DHT22;45732;52.850;6.896;2023-03-21T11:41:24;10.90;99.90
59855;DHT22;45732;52.850;6.896;2023-03-21T11:43:53;10.90;99.90
59855;DHT22;45732;52.850;6.896;2023-03-21T11:46:27;11.00;99.90
59855;DHT22;45732;52.850;6.896;2023-03-21T11:48:54;11.00;99.90
59855;DHT22;45732;52.850;6.896;2023-03-21T11:51:35;11.10;99.90
59855;DHT22;45732;52.850;6.896;2023-03-21T11:56:50;11.20;99.90
59855;DHT22;45732;52.850;6.896;2023-03-21T12:12:55;11.30;99.90
59855;DHT22;45732;52.850;6.896;2023-03-21T12:15:56;11.30;99.90
59855;DHT22;45732;52.850;6.896;2023-03-21T12:26:37;11.40;99.90
59855;DHT22;45732;52.850;6.896;2023-03-21T12:29:21;11.40;99.90
59855;DHT22;45732;52.850;6.896;2023-03-21T12:37:36;11.60;99.90
59855;DHT22;45732;52.850;6.896;2023-03-21T12:45:33;11.70;99.90
59855;DHT22;45732;52.850;6.896;2023-03-21T12:48:36;11.70;99.90
59855;DHT22;45732;52.850;6.896;2023-03-21T12:51:08;11.60;99.90
59855;DHT22;45732;52.850;6.896;2023-03-21T13:00:13;11.60;99.90
59855;DHT22;45732;52.850;6.896;2023-03-21T13:02:34;11.70;99.90
59855;DHT22;45732;52.850;6.896;2023-03-21T13:07:46;11.70;99.90
59855;DHT22;45732;52.850;6.896;2023-03-21T13:10:16;11.70;99.90
59855;DHT22;45732;52.850;6.896;2023-03-21T13:15:44;11.60;99.90
59855;DHT22;45732;52.850;6.896;2023-03-21T13:18:30;11.60;99.90
59855;DHT22;45732;52.850;6.896;2023-03-21T13:21:02;11.60;99.90
59855;DHT22;45732;52.850;6.896;2023-03-21T13:23:35;11.60;99.90
59855;DHT22;45732;52.850;6.896;2023-03-21T13:26:01;11.60;99.90
59855;DHT22;45732;52.850;6.896;2023-03-21T13:28:30;11.60;99.90
59855;DHT22;45732;52.850;6.896;2023-03-21T13:31:22;11.70;99.90
59855;DHT22;45732;52.850;6.896;2023-03-21T13:33:51;11.80;99.90
59855;DHT22;45732;52.850;6.896;2023-03-21T13:36:25;11.90;99.90
59855;DHT22;45732;52.850;6.896;2023-03-21T13:38:58;12.00;99.90
59855;DHT22;45732;52.850;6.896;2023-03-21T13:41:36;11.90;99.90
59855;DHT22;45732;52.850;6.896;2023-03-21T13:48:58;11.90;99.90
59855;DHT22;45732;52.850;6.896;2023-03-21T13:51:53;11.90;99.90
59855;DHT22;45732;52.850;6.896;2023-03-21T13:56:59;11.80;99.90
59855;DHT22;45732;52.850;6.896;2023-03-21T13:59:44;11.80;99.90
59855;DHT22;45732;52.850;6.896;2023-03-21T14:02:23;11.80;99.90
59855;DHT22;45732;52.850;6.896;2023-03-21T14:05:06;11.80;99.90
59855;DHT22;45732;52.850;6.896;2023-03-21T14:07:43;11.80;99.90
59855;DHT22;45732;52.850;6.896;2023-03-21T14:10:33;11.90;99.90
59855;DHT22;45732;52.850;6.896;2023-03-21T14:12:59;11.80;99.90
59855;DHT22;45732;52.850;6.896;2023-03-21T14:15:37;11.90;99.90
59855;DHT22;45732;52.850;6.896;2023-03-21T14:18:05;11.80;99.90
59855;DHT22;45732;52.850;6.896;2023-03-21T14:20:35;11.90;99.90
59855;DHT22;45732;52.850;6.896;2023-03-21T14:23:07;11.90;99.90
59855;DHT22;45732;52.850;6.896;2023-03-21T14:25:35;11.90;99.90
59855;DHT22;45732;52.850;6.896;2023-03-21T14:28:05;11.90;99.90
59855;DHT22;45732;52.850;6.896;2023-03-21T14:30:37;12.00;99.90
59855;DHT22;45732;52.850;6.896;2023-03-21T14:35:48;12.10;99.90
59855;DHT22;45732;52.850;6.896;2023-03-21T14:38:23;12.30;99.90
59855;DHT22;45732;52.850;6.896;2023-03-21T14:40:52;12.30;99.90
59855;DHT22;45732;52.850;6.896;2023-03-21T14:43:20;12.40;99.90
59855;DHT22;45732;52.850;6.896;2023-03-21T14:45:47;12.40;99.90
59855;DHT22;45732;52.850;6.896;2023-03-21T14:48:15;12.50;99.90
59855;DHT22;45732;52.850;6.896;2023-03-21T14:50:48;12.60;99.90
59855;DHT22;45732;52.850;6.896;2023-03-21T14:53:36;12.70;99.90
59855;DHT22;45732;52.850;6.896;2023-03-21T14:56:13;12.90;99.90
59855;DHT22;45732;52.850;6.896;2023-03-21T14:58:43;13.00;99.90
59855;DHT22;45732;52.850;6.896;2023-03-21T15:01:26;13.00;99.90
59855;DHT22;45732;52.850;6.896;2023-03-21T15:03:52;13.00;99.90
59855;DHT22;45732;52.850;6.896;2023-03-21T15:06:18;12.80;99.90
59855;DHT22;45732;52.850;6.896;2023-03-21T15:09:14;12.80;99.90
59855;DHT22;45732;52.850;6.896;2023-03-21T15:11:39;12.70;99.90
59855;DHT22;45732;52.850;6.896;2023-03-21T15:14:07;12.70;99.90
59855;DHT22;45732;52.850;6.896;2023-03-21T15:16:34;12.70;99.90
59855;DHT22;45732;52.850;6.896;2023-03-21T15:19:01;12.70;99.90
59855;DHT22;45732;52.850;6.896;2023-03-21T15:21:38;12.80;99.90
59855;DHT22;45732;52.850;6.896;2023-03-21T15:24:12;12.80;99.90
59855;DHT22;45732;52.850;6.896;2023-03-21T15:26:43;12.90;99.90
59855;DHT22;45732;52.850;6.896;2023-03-21T15:29:12;12.90;99.90
59855;DHT22;45732;52.850;6.896;2023-03-21T15:31:39;12.90;99.90
59855;DHT22;45732;52.850;6.896;2023-03-21T15:34:05;12.90;99.90
59855;DHT22;45732;52.850;6.896;2023-03-21T15:36:40;12.90;99.90
59855;DHT22;45732;52.850;6.896;2023-03-21T15:39:12;12.90;99.90
59855;DHT22;45732;52.850;6.896;2023-03-21T15:41:39;12.80;99.90
59855;DHT22;45732;52.850;6.896;2023-03-21T15:46:49;12.70;99.90
59855;DHT22;45732;52.850;6.896;2023-03-21T15:51:42;12.60;99.90
59855;DHT22;45732;52.850;6.896;2023-03-21T15:54:13;12.60;99.90
59855;DHT22;45732;52.850;6.896;2023-03-21T15:56:40;12.50;99.90
59855;DHT22;45732;52.850;6.896;2023-03-21T15:59:13;12.50;99.90
59855;DHT22;45732;52.850;6.896;2023-03-21T16:01:47;12.50;99.90
59855;DHT22;45732;52.850;6.896;2023-03-21T16:04:13;12.50;99.90
59855;DHT22;45732;52.850;6.896;2023-03-21T16:06:51;12.50;99.90
59855;DHT22;45732;52.850;6.896;2023-03-21T16:09:17;12.50;99.90
59855;DHT22;45732;52.850;6.896;2023-03-21T16:11:54;12.50;99.90
59855;DHT22;45732;52.850;6.896;2023-03-21T16:14:21;12.50;99.90
59855;DHT22;45732;52.850;6.896;2023-03-21T16:16:48;12.50;99.90
59855;DHT22;45732;52.850;6.896;2023-03-21T16:19:14;12.50;99.90
59855;DHT22;45732;52.850;6.896;2023-03-21T16:21:40;12.50;99.90
59855;DHT22;45732;52.850;6.896;2023-03-21T16:24:07;12.50;99.90
59855;DHT22;45732;52.850;6.896;2023-03-21T16:26:36;12.50;99.90
59855;DHT22;45732;52.850;6.896;2023-03-21T16:29:03;12.60;99.90
59855;DHT22;45732;52.850;6.896;2023-03-21T16:31:32;12.50;99.90
59855;DHT22;45732;52.850;6.896;2023-03-21T16:33:58;12.50;99.90
59855;DHT22;45732;52.850;6.896;2023-03-21T16:36:27;12.50;99.90
59855;DHT22;45732;52.850;6.896;2023-03-21T16:38:54;12.50;99.90
59855;DHT22;45732;52.850;6.896;2023-03-21T16:41:24;12.50;99.90
59855;DHT22;45732;52.850;6.896;2023-03-21T16:43:51;12.50;99.90
59855;DHT22;45732;52.850;6.896;2023-03-21T16:46:26;12.50;99.90
59855;DHT22;45732;52.850;6.896;2023-03-21T16:48:53;12.50;99.90
59855;DHT22;45732;52.850;6.896;2023-03-21T16:51:23;12.50;99.90
59855;DHT22;45732;52.850;6.896;2023-03-21T16:53:52;12.50;99.90
59855;DHT22;45732;52.850;6.896;2023-03-21T16:56:24;12.50;99.90
59855;DHT22;45732;52.850;6.896;2023-03-21T16:58:52;12.50;99.90
59855;DHT22;45732;52.850;6.896;2023-03-21T17:01:20;12.50;99.90
59855;DHT22;45732;52.850;6.896;2023-03-21T17:03:50;12.50;99.90
59855;DHT22;45732;52.850;6.896;2023-03-21T17:06:19;12.50;99.90
59855;DHT22;45732;52.850;6.896;2023-03-21T17:08:45;12.50;99.90
59855;DHT22;45732;52.850;6.896;2023-03-21T17:11:13;12.40;99.90
59855;DHT22;45732;52.850;6.896;2023-03-21T17:13:45;12.30;99.90
59855;DHT22;45732;52.850;6.896;2023-03-21T17:16:12;12.20;99.90
59855;DHT22;45732;52.850;6.896;2023-03-21T17:18:38;12.20;99.90
59855;DHT22;45732;52.850;6.896;2023-03-21T17:21:12;12.00;99.90
59855;DHT22;45732;52.850;6.896;2023-03-21T17:23:38;11.90;99.90
59855;DHT22;45732;52.850;6.896;2023-03-21T17:26:04;11.90;99.90
59855;DHT22;45732;52.850;6.896;2023-03-21T17:28:34;11.90;99.90
59855;DHT22;45732;52.850;6.896;2023-03-21T17:31:00;11.80;99.90
59855;DHT22;45732;52.850;6.896;2023-03-21T17:33:26;11.70;99.90
59855;DHT22;45732;52.850;6.896;2023-03-21T17:35:51;11.70;99.90
59855;DHT22;45732;52.850;6.896;2023-03-21T17:38:17;11.70;99.90
59855;DHT22;45732;52.850;6.896;2023-03-21T17:40:43;11.70;99.90
59855;DHT22;45732;52.850;6.896;2023-03-21T17:43:15;11.70;99.90
59855;DHT22;45732;52.850;6.896;2023-03-21T17:45:41;11.70;99.90
59855;DHT22;45732;52.850;6.896;2023-03-21T17:48:08;11.70;99.90
59855;DHT22;45732;52.850;6.896;2023-03-21T17:50:34;11.60;99.90
59855;DHT22;45732;52.850;6.896;2023-03-21T17:53:02;11.60;99.90
59855;DHT22;45732;52.850;6.896;2023-03-21T17:55:28;11.60;99.90
59855;DHT22;45732;52.850;6.896;2023-03-21T17:57:55;11.60;99.90
59855;DHT22;45732;52.850;6.896;2023-03-21T18:00:29;11.50;99.90
59855;DHT22;45732;52.850;6.896;2023-03-21T18:02:55;11.60;99.90
59855;DHT22;45732;52.850;6.896;2023-03-21T18:05:22;11.50;99.90